Impacts TAF Board INFO
FOR SITUATIONAL AWARENESS. NOT TO BE USED FOR FLIGHT PLANNING PURPOSES.
IDs:

KATL - Atlanta/Hartsfield-J, GA, US

Issued at 1745 UTC 18 Feb 2018
Updated at 1958 UTC 18 Feb 2018
Potential Impact None Slight Moderate High
Time<<19/08Z 19/09Z 19/10Z 19/11Z 19/12Z 19/13Z 19/14Z 19/15Z 19/16Z 19/17Z 19/18Z 19/19Z 19/20Z>>
Type PRVL PRVL PRVL PRVL PRVL PRVL PRVL PRVL PRVL PRVL PRVL PRVL PRVL
VIS 3 3 3 3 3 3 3 >6 >6 >6 >6 >6 >6
CIG 6 6 6 6 6 6 6 12 12 12 12 12 12
Cover OVC OVC OVC OVC OVC OVC OVC BKN BKN BKN BKN BKN BKN
FltCat IFR IFR IFR IFR IFR IFR IFR MVFR MVFR MVFR MVFR MVFR MVFR
WX -DZ BR -DZ BR -DZ BR -DZ BR -DZ BR -DZ BR -DZ BR -- -- -- -- -- --
WDir 120 120 120 120 120 120 120 140 140 140 140 140 140
WSpd 7 7 7 7 7 7 7 7 7 7 7 7 7
WGst -- -- -- -- -- -- -- -- -- -- -- -- --

Raw TAF
KATL 181745Z 1818/1924 08007KT P6SM BKN035
  FM182000 12006KT P6SM BKN025
  FM190200 11008KT 6SM -DZ BR OVC009
  FM190800 12007KT 3SM -DZ BR OVC006
  FM191500 14007KT P6SM BKN012
  FM192100 14009KT P6SM SCT030


METAR Board
Radar Display
Forecast Discussion

FOR SITUATIONAL AWARENESS. NOT TO BE USED FOR FLIGHT PLANNING PURPOSES.